Time;durP1;ratioP1;P1;durP2;ratioP2;P2;SDS_P1;SDS_P2;PMS_P1;PMS_P2;Temp;Humidity;BMP_temperature;BMP_pressure;BME280_temperature;BME280_humidity;BME280_pressure;Samples;Min_cycle;Max_cycle;Signal;HPM_P1;HPM_P2
2022/05/11 00:00:39;;;;;;;11.65;6.00;;;;;;;12.01;82.56;98387.91;5416996;26;20090;-76
2022/05/11 00:03:06;;;;;;;11.55;5.57;;;;;;;11.63;84.09;98391.25;5416289;26;20456;-76
2022/05/11 00:05:35;;;;;;;12.25;6.10;;;;;;;12.02;82.22;98381.84;5437125;26;20046;-76
2022/05/11 00:08:03;;;;;;;12.30;6.18;;;;;;;12.01;81.97;98387.06;5436490;26;20082;-76
2022/05/11 00:10:31;;;;;;;13.20;6.40;;;;;;;11.87;82.33;98385.09;5417029;26;20059;-76
2022/05/11 00:12:58;;;;;;;11.57;5.78;;;;;;;11.65;84.44;98382.53;5436998;26;20181;-76
2022/05/11 00:15:26;;;;;;;12.82;6.37;;;;;;;12.03;82.94;98380.09;5436741;26;20094;-76
2022/05/11 00:17:53;;;;;;;11.80;5.68;;;;;;;12.60;79.66;98376.66;5416382;26;20130;-76
2022/05/11 00:20:20;;;;;;;13.50;5.95;;;;;;;12.73;78.79;98376.94;5416752;26;20421;-76
2022/05/11 00:22:47;;;;;;;11.02;6.00;;;;;;;12.59;79.11;98377.59;5436635;26;20059;-76
2022/05/11 00:25:15;;;;;;;10.48;5.82;;;;;;;12.89;77.89;98377.91;5416569;26;20523;-76
2022/05/11 00:27:42;;;;;;;12.45;5.50;;;;;;;12.31;80.30;98371.97;5416362;26;20412;-76
2022/05/11 00:30:11;;;;;;;12.23;5.97;;;;;;;12.44;79.89;98381.72;5436592;26;20115;-76
2022/05/11 00:32:38;;;;;;;12.43;6.62;;;;;;;12.70;78.70;98374.50;5436930;26;20058;-76
2022/05/11 00:35:05;;;;;;;11.20;6.20;;;;;;;12.27;80.34;98379.03;5437051;26;20142;-76
2022/05/11 00:37:33;;;;;;;13.60;6.75;;;;;;;12.40;80.26;98372.38;5436519;26;20047;-76
2022/05/11 00:40:00;;;;;;;13.30;6.45;;;;;;;12.34;80.19;98372.69;5436995;26;20059;-76
2022/05/11 00:42:27;;;;;;;11.85;5.87;;;;;;;12.08;82.51;98378.16;5436828;26;20072;-76
2022/05/11 00:44:55;;;;;;;12.37;6.07;;;;;;;12.37;81.47;98380.31;5436569;26;20393;-76
2022/05/11 00:47:35;;;;;;;12.93;6.03;;;;;;;12.49;80.73;98380.66;5436778;26;20043;-76
2022/05/11 00:50:16;;;;;;;13.95;6.50;;;;;;;12.41;80.35;98373.22;5416513;26;20122;-76
2022/05/11 00:52:48;;;;;;;11.70;6.03;;;;;;;12.42;81.27;98373.16;5397728;26;20145;-76
2022/05/11 00:55:19;;;;;;;14.30;6.32;;;;;;;12.64;79.83;98364.41;5416475;26;20050;-76
2022/05/11 00:57:55;;;;;;;14.02;6.30;;;;;;;12.68;79.09;98364.22;5416122;26;20082;-76
2022/05/11 01:00:23;;;;;;;12.75;6.20;;;;;;;12.93;78.08;98358.72;5436955;26;20111;-76
2022/05/11 01:02:58;;;;;;;10.93;5.60;;;;;;;13.13;77.14;98364.72;5416454;26;20086;-76
2022/05/11 01:05:25;;;;;;;14.07;5.93;;;;;;;12.98;76.79;98366.28;5416129;26;20107;-76
2022/05/11 01:07:54;;;;;;;11.25;6.00;;;;;;;12.68;78.13;98364.22;5436544;26;20063;-76
2022/05/11 01:10:21;;;;;;;13.65;6.60;;;;;;;12.49;79.32;98363.37;5416498;26;20079;-76
2022/05/11 01:12:51;;;;;;;12.27;6.70;;;;;;;11.91;82.04;98365.09;5436318;26;20134;-76
2022/05/11 01:15:19;;;;;;;11.40;6.20;;;;;;;12.28;80.25;98367.75;5416468;26;20067;-76
2022/05/11 01:17:46;;;;;;;13.85;6.65;;;;;;;12.00;81.53;98370.72;5436284;26;20039;-76
2022/05/11 01:20:17;;;;;;;12.73;6.43;;;;;;;11.55;83.64;98368.31;5436586;26;20058;-76
2022/05/11 01:22:53;;;;;;;11.05;6.07;;;;;;;11.97;81.64;98364.84;5417360;26;20074;-76
2022/05/11 01:25:20;;;;;;;12.13;6.25;;;;;;;11.95;81.90;98370.09;5417082;26;20110;-76
2022/05/11 01:27:48;;;;;;;11.07;5.80;;;;;;;12.00;81.72;98364.69;5437356;26;20047;-76
2022/05/11 01:30:18;;;;;;;12.05;6.20;;;;;;;11.76;82.82;98363.97;5417371;26;20118;-76
2022/05/11 01:32:47;;;;;;;11.02;6.25;;;;;;;11.80;82.86;98366.41;5437332;26;20089;-76
2022/05/11 01:35:14;;;;;;;11.93;5.97;;;;;;;12.17;81.00;98370.00;5417237;26;20692;-76
2022/05/11 01:37:43;;;;;;;;;;;;;;;12.01;81.72;98358.62;5437889;26;20397;-76
2022/05/11 01:40:10;;;;;;;11.98;6.30;;;;;;;11.80;82.53;98363.84;5437383;26;19975;-76
2022/05/11 01:42:37;;;;;;;13.18;6.03;;;;;;;12.09;80.89;98364.31;5437582;26;20074;-76
2022/05/11 01:45:05;;;;;;;12.20;6.50;;;;;;;11.93;81.53;98358.97;5437575;26;20061;-76
2022/05/11 01:47:32;;;;;;;11.73;5.82;;;;;;;11.97;81.93;98357.94;5437056;26;20099;-76
2022/05/11 01:49:59;;;;;;;12.90;6.28;;;;;;;12.01;81.52;98359.47;5437686;26;20417;-76
2022/05/11 01:52:26;;;;;;;12.52;6.87;;;;;;;11.62;83.34;98356.81;5437615;26;20103;-76
2022/05/11 01:54:53;;;;;;;;;;;;;;;11.83;82.44;98368.03;5437574;26;20106;-76
2022/05/11 01:57:20;;;;;;;12.23;6.50;;;;;;;11.52;84.06;98356.34;5437580;26;19950;-76
2022/05/11 01:59:47;;;;;;;12.98;6.70;;;;;;;11.34;85.76;98356.28;5437543;26;20072;-76
2022/05/11 02:02:14;;;;;;;19.60;6.80;;;;;;;11.14;86.88;98357.06;5437064;26;21651;-76
2022/05/11 02:10:11;;;;;;;12.32;6.75;;;;;;;11.20;87.11;98360.25;5437420;26;20058;-76
2022/05/11 02:12:38;;;;;;;14.23;6.87;;;;;;;11.64;85.57;98360.19;5417028;26;20118;-76
2022/05/11 02:15:07;;;;;;;13.00;7.07;;;;;;;11.66;85.14;98360.94;5437112;26;20107;-76
2022/05/11 02:17:34;;;;;;;13.35;7.05;;;;;;;11.69;84.99;98358.22;5437228;26;20094;-76
2022/05/11 02:20:03;;;;;;;13.93;7.05;;;;;;;11.60;85.17;98356.06;5437540;26;20114;-76
2022/05/11 02:22:30;;;;;;;13.77;7.05;;;;;;;11.43;86.47;98361.06;5437060;26;20480;-76
2022/05/11 02:24:56;;;;;;;13.30;6.68;;;;;;;11.45;85.87;98352.34;5437604;26;20142;-77
2022/05/11 02:27:23;;;;;;;11.52;6.40;;;;;;;11.78;84.75;98355.25;5416953;26;20524;-76
2022/05/11 02:29:50;;;;;;;12.63;6.55;;;;;;;11.58;85.56;98353.50;5437205;26;20055;-76
2022/05/11 02:32:17;;;;;;;12.48;6.65;;;;;;;11.49;86.14;98360.81;5437280;26;20114;-76
2022/05/11 02:37:30;;;;;;;13.90;7.85;;;;;;;11.48;86.75;98352.25;5437114;26;20043;-76
2022/05/11 02:39:57;;;;;;;12.88;6.80;;;;;;;11.44;86.86;98349.81;5437364;26;20122;-76
2022/05/11 02:42:24;;;;;;;13.25;7.12;;;;;;;11.48;86.53;98339.31;5437044;26;20111;-76
2022/05/11 02:44:52;;;;;;;15.00;7.03;;;;;;;11.70;85.81;98344.41;5437536;26;20430;-76
2022/05/11 02:47:19;;;;;;;14.30;7.65;;;;;;;11.66;85.82;98337.69;5437128;26;20099;-76
2022/05/11 02:49:46;;;;;;;16.75;7.75;;;;;;;11.50;85.94;98345.25;5436929;26;20109;-76
2022/05/11 02:52:14;;;;;;;14.68;7.68;;;;;;;11.84;84.93;98347.28;5416973;26;20123;-76
2022/05/11 02:54:41;;;;;;;13.50;7.57;;;;;;;11.64;85.80;98349.00;5437480;26;20577;-76
2022/05/11 02:57:08;;;;;;;12.07;6.97;;;;;;;11.88;84.22;98353.16;5436891;26;20109;-76
2022/05/11 02:59:36;;;;;;;14.02;7.25;;;;;;;12.03;83.58;98344.75;5437353;26;20103;-76
2022/05/11 03:02:03;;;;;;;13.50;6.75;;;;;;;11.83;84.72;98348.19;5437351;26;20055;-76
2022/05/11 03:04:30;;;;;;;11.27;6.57;;;;;;;12.15;82.84;98349.38;5436936;26;20122;-76
2022/05/11 03:06:57;;;;;;;13.45;7.20;;;;;;;12.30;82.28;98353.00;5416922;26;20069;-76
2022/05/11 03:09:24;;;;;;;13.13;7.68;;;;;;;12.23;82.41;98350.75;5437251;26;20055;-76
2022/05/11 03:11:51;;;;;;;12.45;6.72;;;;;;;12.21;82.49;98352.56;5436956;26;20317;-76
2022/05/11 03:14:18;;;;;;;12.77;6.70;;;;;;;12.52;81.21;98355.47;5437267;26;20043;-76
2022/05/11 03:16:45;;;;;;;13.75;7.65;;;;;;;12.27;82.28;98352.31;5436902;26;20109;-76
2022/05/11 03:19:12;;;;;;;16.08;7.55;;;;;;;11.90;83.79;98355.66;5436762;26;20059;-76
2022/05/11 03:21:39;;;;;;;12.98;7.68;;;;;;;12.14;82.51;98355.44;5437317;26;20734;-76
2022/05/11 03:24:07;;;;;;;13.82;7.35;;;;;;;12.06;83.11;98349.78;5437174;26;20145;-76
2022/05/11 03:26:35;;;;;;;13.30;7.75;;;;;;;12.45;81.61;98349.75;5416532;26;20509;-76
2022/05/11 03:29:05;;;;;;;13.43;7.43;;;;;;;12.61;80.86;98349.03;5437146;26;20428;-76
2022/05/11 03:31:33;;;;;;;13.20;6.78;;;;;;;12.78;80.10;98354.28;5417056;26;20059;-76
2022/05/11 03:36:47;;;;;;;16.10;7.60;;;;;;;12.88;79.02;98362.47;5437471;26;20122;-76
2022/05/11 03:39:15;;;;;;;14.55;7.50;;;;;;;12.67;80.65;98359.12;5436747;26;20118;-76
2022/05/11 03:41:45;;;;;;;14.70;7.05;;;;;;;12.50;82.11;98359.03;5437440;26;20059;-76
2022/05/11 03:44:12;;;;;;;14.90;7.82;;;;;;;12.67;81.87;98359.12;5436975;26;20106;-76
2022/05/11 03:46:39;;;;;;;14.75;8.23;;;;;;;12.89;81.16;98356.38;5436730;26;20059;-76
2022/05/11 03:49:06;;;;;;;13.38;7.55;;;;;;;12.99;80.42;98350.69;5437019;26;20393;-76
2022/05/11 03:51:33;;;;;;;13.52;7.35;;;;;;;12.67;82.03;98351.34;5417146;26;20082;-76
2022/05/11 03:54:00;;;;;;;12.80;7.28;;;;;;;12.83;81.47;98354.87;5436698;26;20134;-76
2022/05/11 03:56:28;;;;;;;13.15;7.20;;;;;;;12.96;81.71;98353.38;5437260;26;20109;-76
2022/05/11 03:58:56;;;;;;;14.15;7.10;;;;;;;13.37;79.75;98353.19;5437005;26;20077;-76
2022/05/11 04:01:23;;;;;;;12.98;7.10;;;;;;;13.58;78.90;98359.91;5436883;26;20086;-76
2022/05/11 04:03:50;;;;;;;12.13;6.40;;;;;;;13.84;77.97;98347.37;5437142;26;20047;-76
2022/05/11 04:06:17;;;;;;;12.27;6.70;;;;;;;13.91;77.65;98356.50;5437224;26;20144;-76
2022/05/11 04:08:44;;;;;;;13.48;6.35;;;;;;;14.11;76.86;98353.72;5436416;26;20059;-77
2022/05/11 04:11:12;;;;;;;14.27;6.60;;;;;;;14.43;75.35;98362.41;5437244;26;20114;-77
2022/05/11 04:13:42;;;;;;;12.07;6.37;;;;;;;14.28;76.34;98359.81;5436583;26;20065;-77
2022/05/11 04:16:09;;;;;;;12.43;6.00;;;;;;;14.83;74.46;98364.66;5436982;26;20467;-77
2022/05/11 04:18:36;;;;;;;11.38;6.18;;;;;;;15.48;72.10;98365.31;5436979;26;20118;-77
2022/05/11 04:21:03;;;;;;;11.50;6.00;;;;;;;15.77;70.93;98374.91;5436811;26;20051;-77
2022/05/11 04:23:30;;;;;;;11.48;5.50;;;;;;;16.34;68.88;98366.31;5436990;26;20114;-77
2022/05/11 04:25:57;;;;;;;10.85;5.22;;;;;;;16.73;67.56;98369.09;5437146;26;20298;-77
2022/05/11 04:28:24;;;;;;;12.55;5.30;;;;;;;17.08;66.61;98362.56;5436326;26;20090;-77
2022/05/11 04:30:51;;;;;;;12.07;5.65;;;;;;;17.27;66.27;98366.50;5437180;26;20110;-77
2022/05/11 04:33:18;;;;;;;10.60;5.30;;;;;;;18.11;63.64;98373.16;5436974;26;20047;-77
2022/05/11 04:35:45;;;;;;;9.95;5.45;;;;;;;18.84;61.50;98373.28;5436516;26;20126;-77
2022/05/11 04:38:12;;;;;;;9.70;5.10;;;;;;;19.78;58.60;98373.38;5436838;26;20063;-77
2022/05/11 04:40:39;;;;;;;9.50;4.72;;;;;;;20.82;55.66;98372.38;5437038;26;20142;-77
2022/05/11 04:43:07;;;;;;;11.40;4.90;;;;;;;21.98;52.42;98373.38;5415963;26;20067;-77
2022/05/11 04:45:43;;;;;;;8.93;4.80;;;;;;;22.82;49.80;98377.53;5436885;26;20121;-77
2022/05/11 04:48:11;;;;;;;9.85;4.15;;;;;;;23.91;47.87;98376.53;5436734;26;20069;-77
2022/05/11 04:50:41;;;;;;;10.80;5.10;;;;;;;24.88;45.87;98386.75;5436701;26;20107;-77
2022/05/11 04:53:10;;;;;;;10.88;4.80;;;;;;;25.59;43.77;98384.22;5436878;26;20062;-77
2022/05/11 04:55:38;;;;;;;9.35;4.60;;;;;;;26.26;42.48;98395.97;5417163;26;20117;-77
2022/05/11 04:58:05;;;;;;;11.55;4.37;;;;;;;27.03;40.55;98396.91;5437703;26;20114;-77
2022/05/11 05:00:33;;;;;;;7.75;3.92;;;;;;;27.50;39.63;98398.97;5417347;26;20110;-77
2022/05/11 05:03:02;;;;;;;9.77;4.00;;;;;;;27.86;38.90;98395.06;5437221;26;20121;-77
2022/05/11 05:05:33;;;;;;;8.93;4.50;;;;;;;27.76;38.74;98396.22;5437956;26;20039;-77
2022/05/11 05:08:00;;;;;;;9.10;4.65;;;;;;;28.57;37.14;98392.59;5437546;26;20089;-77
2022/05/11 05:10:27;;;;;;;7.53;4.07;;;;;;;28.79;37.99;98402.47;5437340;26;20075;-78
2022/05/11 05:12:54;;;;;;;8.82;3.85;;;;;;;29.50;35.99;98390.84;5437710;26;20065;-78
2022/05/11 05:15:21;;;;;;;11.27;4.50;;;;;;;30.02;35.33;98397.25;5437812;26;20073;-78
2022/05/11 05:17:51;;;;;;;10.05;4.35;;;;;;;30.89;33.79;98398.31;5436933;26;20069;-78
2022/05/11 05:20:18;;;;;;;8.73;4.12;;;;;;;31.47;32.65;98393.87;5398621;26;20204;-78
2022/05/11 05:22:45;;;;;;;8.90;4.00;;;;;;;31.13;33.69;98393.69;5437470;26;20403;-78
2022/05/11 05:25:12;;;;;;;8.95;3.95;;;;;;;30.34;34.22;98385.47;5437216;26;20366;-78
2022/05/11 05:27:39;;;;;;;8.13;4.10;;;;;;;29.54;35.79;98389.47;5437417;26;20123;-78
2022/05/11 05:32:53;;;;;;;8.83;4.23;;;;;;;28.88;37.29;98398.81;5437429;26;20061;-78
2022/05/11 05:35:20;;;;;;;6.72;4.00;;;;;;;27.96;38.45;98398.34;5437578;26;20074;-78
2022/05/11 05:37:48;;;;;;;9.15;4.37;;;;;;;27.66;39.82;98397.22;5437130;26;20130;-79
2022/05/11 05:40:14;;;;;;;8.90;4.40;;;;;;;27.37;40.16;98389.69;5437578;26;20064;-77
2022/05/11 05:42:42;;;;;;;8.90;4.32;;;;;;;27.18;41.05;98395.28;5437624;26;20449;-77
2022/05/11 05:45:10;;;;;;;7.62;4.05;;;;;;;27.41;41.10;98387.53;5437321;26;20317;-77
2022/05/11 05:47:37;;;;;;;7.72;4.32;;;;;;;27.11;41.92;98381.00;5417231;26;20059;-77
2022/05/11 05:50:05;;;;;;;8.80;4.47;;;;;;;27.18;41.76;98384.69;5437171;26;20412;-78
2022/05/11 05:52:35;;;;;;;7.43;3.83;;;;;;;26.93;42.01;98388.22;5436698;26;20091;-78
2022/05/11 05:55:03;;;;;;;8.70;4.40;;;;;;;26.91;42.76;98392.87;5416429;26;20408;-78
2022/05/11 05:57:31;;;;;;;10.20;4.45;;;;;;;26.75;42.90;98391.78;5437253;26;20067;-78
2022/05/11 06:00:00;;;;;;;8.65;4.32;;;;;;;26.93;43.44;98391.72;5416664;26;20054;-79
2022/05/11 06:02:27;;;;;;;12.23;4.97;;;;;;;26.84;43.35;98397.12;5437375;26;20054;-79
2022/05/11 06:04:54;;;;;;;9.02;4.40;;;;;;;26.09;44.41;98386.28;5415196;26;20485;-79
2022/05/11 06:10:39;;;;;;;9.65;4.90;;;;;;;26.50;44.71;98395.34;5435631;26;20099;-78
2022/05/11 06:13:07;;;;;;;11.82;5.10;;;;;;;26.28;43.59;98398.50;5435849;26;20070;-78
2022/05/11 06:15:35;;;;;;;8.93;4.53;;;;;;;25.79;46.25;98401.59;5436641;26;20118;-78
2022/05/11 06:18:03;;;;;;;8.15;4.43;;;;;;;26.21;46.23;98398.28;5436463;26;20477;-78
2022/05/11 06:20:29;;;;;;;8.82;4.57;;;;;;;26.83;44.20;98409.53;5436791;26;20404;-78
2022/05/11 06:22:56;;;;;;;10.73;4.72;;;;;;;26.11;45.74;98401.00;5437407;26;20129;-78
2022/05/11 06:25:23;;;;;;;8.80;4.72;;;;;;;26.18;44.66;98403.88;5437478;26;20059;-78
2022/05/11 06:27:51;;;;;;;9.20;5.12;;;;;;;25.98;45.51;98403.25;5436771;26;20543;-78
2022/05/11 06:30:18;;;;;;;10.40;4.75;;;;;;;26.29;45.00;98405.44;5437319;26;20069;-79
2022/05/11 06:32:45;;;;;;;10.27;4.90;;;;;;;26.05;44.46;98401.66;5437356;26;20062;-78
2022/05/11 06:35:11;;;;;;;9.82;5.07;;;;;;;25.42;46.50;98407.03;5416631;26;20122;-78
2022/05/11 06:37:42;;;;;;;10.77;5.10;;;;;;;25.97;44.67;98400.75;5437445;26;20073;-79
2022/05/11 06:40:10;;;;;;;10.05;5.00;;;;;;;26.03;45.76;98400.13;5437261;26;20083;-79
2022/05/11 06:42:37;;;;;;;10.60;4.78;;;;;;;25.64;46.24;98403.94;5436953;26;20051;-79
2022/05/11 06:45:05;;;;;;;9.05;4.80;;;;;;;26.20;46.26;98404.53;5417059;26;20054;-78
2022/05/11 06:47:33;;;;;;;8.90;4.78;;;;;;;26.47;43.62;98408.84;5437328;26;20067;-79
2022/05/11 06:50:00;;;;;;;14.07;5.15;;;;;;;26.44;45.47;98412.66;5436940;26;20433;-79
2022/05/11 06:52:27;;;;;;;9.13;5.12;;;;;;;26.58;45.55;98405.94;5437554;26;20092;-79
2022/05/11 07:00:35;;;;;;;8.68;5.10;;;;;;;27.02;43.36;98409.31;5437299;26;20109;-78
2022/05/11 07:03:04;;;;;;;9.57;5.05;;;;;;;27.35;42.72;98401.44;5437106;26;20078;-78
2022/05/11 07:05:36;;;;;;;13.38;5.12;;;;;;;27.47;41.68;98410.72;5437510;26;20043;-78
2022/05/11 07:08:03;;;;;;;8.43;5.00;;;;;;;27.34;42.94;98410.38;5437165;26;20114;-78
2022/05/11 07:10:31;;;;;;;10.27;4.80;;;;;;;27.66;42.03;98410.47;5416470;26;20114;-78
2022/05/11 07:12:58;;;;;;;11.38;4.90;;;;;;;28.22;40.60;98413.25;5437634;26;20134;-78
2022/05/11 07:15:25;;;;;;;10.73;4.62;;;;;;;28.43;41.48;98410.91;5437356;26;20057;-79
2022/05/11 07:17:57;;;;;;;8.38;4.78;;;;;;;28.01;40.45;98404.97;5436147;26;20062;-79
2022/05/11 07:20:29;;;;;;;9.07;4.87;;;;;;;27.05;43.28;98402.88;5437206;26;20058;-79
2022/05/11 07:22:56;;;;;;;9.80;4.72;;;;;;;26.52;43.67;98404.75;5437438;26;20074;-79
2022/05/11 07:25:24;;;;;;;9.57;4.75;;;;;;;27.17;42.72;98404.22;5437055;26;20047;-79
2022/05/11 07:27:52;;;;;;;10.05;5.10;;;;;;;27.59;40.77;98405.94;5437131;26;20115;-79
2022/05/11 07:30:22;;;;;;;8.25;4.65;;;;;;;27.76;41.61;98399.69;5436602;26;20573;-79
2022/05/11 07:32:57;;;;;;;9.43;4.45;;;;;;;28.14;40.72;98408.78;5437215;26;20047;-80
2022/05/11 07:35:24;;;;;;;9.95;4.75;;;;;;;28.08;40.08;98405.97;5437380;26;20092;-79
2022/05/11 07:37:51;;;;;;;9.82;5.00;;;;;;;27.71;40.75;98398.53;5436711;26;20207;-78
2022/05/11 07:40:20;;;;;;;10.55;4.97;;;;;;;27.94;40.04;98407.47;5437151;26;20638;-78
2022/05/11 07:42:47;;;;;;;8.35;4.25;;;;;;;27.87;40.05;98409.13;5437338;26;20127;-79
2022/05/11 07:45:16;;;;;;;8.25;4.72;;;;;;;28.10;39.78;98407.47;5436734;26;20183;-79
2022/05/11 07:47:43;;;;;;;8.85;4.60;;;;;;;28.13;38.88;98407.13;5436780;26;20129;-79
2022/05/11 07:50:15;;;;;;;11.10;4.70;;;;;;;28.19;39.48;98406.44;5437213;26;20125;-79
2022/05/11 07:52:44;;;;;;;11.75;4.90;;;;;;;28.47;39.15;98408.72;5436810;26;20102;-79
2022/05/11 07:55:11;;;;;;;8.70;4.50;;;;;;;28.63;38.49;98405.22;5437158;26;20130;-80
2022/05/11 08:00:24;;;;;;;9.45;4.75;;;;;;;28.46;38.17;98407.91;5436765;26;20089;-79
2022/05/11 08:02:55;;;;;;;9.73;4.68;;;;;;;28.37;38.31;98411.56;5437253;26;20043;-79
2022/05/11 08:05:23;;;;;;;8.55;4.65;;;;;;;28.74;37.20;98410.97;5434941;26;20059;-79
2022/05/11 08:07:53;;;;;;;9.25;4.25;;;;;;;28.20;37.48;98397.50;5434768;26;20141;-79
2022/05/11 08:10:31;;;;;;;9.70;4.82;;;;;;;27.98;38.07;98408.81;5430091;26;150136;-79
2022/05/11 08:12:58;;;;;;;9.93;4.53;;;;;;;27.98;39.41;98403.50;5435832;26;20114;-79
2022/05/11 08:15:27;;;;;;;9.68;4.40;;;;;;;28.33;37.61;98404.12;5436079;26;20146;-79
2022/05/11 08:17:55;;;;;;;8.70;4.60;;;;;;;28.49;37.30;98404.91;5435857;26;20416;-78
2022/05/11 08:20:25;;;;;;;9.25;4.30;;;;;;;28.46;37.53;98413.22;5415774;26;20400;-79
2022/05/11 08:22:53;;;;;;;7.65;4.15;;;;;;;27.92;39.34;98404.97;5437144;26;20101;-79
2022/05/11 08:25:22;;;;;;;9.48;4.40;;;;;;;27.92;37.37;98412.94;5416823;26;20067;-79
2022/05/11 08:27:50;;;;;;;10.65;4.22;;;;;;;28.14;38.31;98414.06;5416048;26;20106;-78
2022/05/11 08:33:23;;;;;;;8.60;4.22;;;;;;;28.43;35.21;98407.44;5437374;26;20092;-79
2022/05/11 08:36:16;;;;;;;9.73;4.50;;;;;;;28.55;37.84;98406.06;5423232;26;20100;-79
2022/05/11 08:38:46;;;;;;;8.80;4.40;;;;;;;29.01;35.46;98406.22;5436878;26;20118;-79
2022/05/11 08:41:36;;;;;;;8.07;4.20;;;;;;;29.13;34.07;98406.66;5436487;26;20118;-78
2022/05/11 08:44:13;;;;;;;7.53;3.95;;;;;;;29.46;33.35;98405.47;5397928;26;20050;-78
2022/05/11 08:46:50;;;;;;;7.70;4.07;;;;;;;29.79;32.01;98405.25;5437137;26;20402;-78
2022/05/11 08:49:27;;;;;;;8.20;4.10;;;;;;;29.96;32.97;98404.09;5436160;26;20103;-78
2022/05/11 08:51:56;;;;;;;9.82;4.03;;;;;;;30.24;32.16;98402.53;5437047;26;20389;-77
2022/05/11 08:54:39;;;;;;;8.55;3.92;;;;;;;30.00;32.76;98396.59;5416314;26;20094;-78
2022/05/11 08:57:12;;;;;;;7.95;4.15;;;;;;;30.07;33.57;98402.88;5436825;26;20118;-79
2022/05/11 08:59:40;;;;;;;7.70;3.90;;;;;;;30.41;31.77;98408.53;5436847;26;20055;-78
2022/05/11 09:02:22;;;;;;;9.63;3.80;;;;;;;30.28;30.74;98408.31;5436502;26;20353;-78
2022/05/11 09:05:00;;;;;;;7.43;4.15;;;;;;;29.75;30.41;98398.63;5416659;26;20405;-78
2022/05/11 09:07:37;;;;;;;7.22;3.90;;;;;;;30.33;31.42;98408.59;5416454;26;20078;-78
2022/05/11 09:10:05;;;;;;;8.07;3.87;;;;;;;30.12;31.00;98405.84;5436226;26;20165;-78
2022/05/11 09:12:34;;;;;;;7.62;3.40;;;;;;;30.31;30.47;98415.13;5436892;26;20055;-78
2022/05/11 09:15:04;;;;;;;7.22;3.42;;;;;;;30.52;28.47;98412.56;5436695;26;20774;-78
2022/05/11 09:17:36;;;;;;;7.47;3.60;;;;;;;30.82;29.37;98413.38;5435932;26;20353;-78
2022/05/11 09:20:11;;;;;;;8.90;3.72;;;;;;;30.34;28.64;98414.75;5416278;26;20119;-78
2022/05/11 09:22:55;;;;;;;6.70;3.55;;;;;;;30.13;30.26;98410.13;5436448;26;20066;-78
2022/05/11 09:25:26;;;;;;;7.30;3.78;;;;;;;29.51;29.85;98413.78;5416397;26;20054;-78
2022/05/11 09:28:19;;;;;;;6.35;3.50;;;;;;;29.13;30.06;98409.31;5416301;26;20066;-77
2022/05/11 09:31:00;;;;;;;6.20;3.30;;;;;;;30.07;28.36;98405.53;5436161;26;20082;-78
2022/05/11 09:33:37;;;;;;;8.43;3.62;;;;;;;30.42;28.43;98412.03;5436807;26;20409;-78
2022/05/11 09:36:05;;;;;;;7.30;3.80;;;;;;;30.41;28.95;98418.31;5436855;26;20070;-78
2022/05/11 09:39:05;;;;;;;8.15;3.45;;;;;;;29.88;28.23;98404.16;5436564;26;20107;-78
2022/05/11 09:41:33;;;;;;;7.30;3.75;;;;;;;30.61;28.49;98408.78;5416597;26;20367;-78
2022/05/11 09:44:23;;;;;;;8.50;3.62;;;;;;;30.32;29.09;98414.13;5437182;26;20047;-78
2022/05/11 09:46:51;;;;;;;8.65;3.50;;;;;;;30.06;29.53;98407.37;5437533;26;20057;-78
2022/05/11 09:49:18;;;;;;;8.70;4.10;;;;;;;30.64;30.41;98411.12;5437301;26;20391;-79
2022/05/11 09:51:50;;;;;;;6.65;3.33;;;;;;;30.56;29.47;98405.84;5437306;26;20061;-78
2022/05/11 09:54:42;;;;;;;7.55;3.70;;;;;;;30.26;28.29;98407.69;5437779;26;20119;-78
2022/05/11 09:57:09;;;;;;;7.10;4.10;;;;;;;29.97;31.75;98411.06;5438476;26;20423;-79
2022/05/11 09:59:43;;;;;;;8.60;3.97;;;;;;;29.97;29.29;98408.41;5437260;26;20050;-78
2022/05/11 10:02:39;;;;;;;7.00;3.70;;;;;;;29.63;30.15;98409.69;5437847;26;20200;-78
2022/05/11 10:05:13;;;;;;;6.93;3.75;;;;;;;30.27;29.68;98406.66;5416896;26;20115;-79
2022/05/11 10:07:54;;;;;;;7.65;3.90;;;;;;;30.19;28.13;98398.75;5416980;26;20047;-78
2022/05/11 10:10:43;;;;;;;8.45;3.80;;;;;;;30.47;28.43;98398.97;5417172;26;20109;-79
2022/05/11 10:13:26;;;;;;;9.02;3.97;;;;;;;30.28;29.00;98394.19;5416831;26;20086;-78
2022/05/11 10:21:50;;;;;;;6.62;3.62;;;;;;;29.20;31.77;98389.84;5437045;26;20075;-80
2022/05/11 10:22:02;;;;;;;7.37;4.10;;;;;;;30.02;30.27;98395.41;5423479;26;20049;-79
2022/05/11 10:24:48;;;;;;;8.60;4.37;;;;;;;29.91;30.69;98387.88;5437529;26;20066;-79
2022/05/11 10:27:29;;;;;;;7.37;3.95;;;;;;;29.69;29.75;98391.38;5437154;26;20441;-78
2022/05/11 10:30:05;;;;;;;11.50;3.97;;;;;;;30.33;28.75;98389.16;5437244;26;20055;-78
2022/05/11 10:32:54;;;;;;;10.70;4.37;;;;;;;30.11;30.54;98389.03;5437265;26;20114;-79
2022/05/11 10:35:58;;;;;;;10.02;4.32;;;;;;;30.23;31.58;98381.44;5437529;26;20464;-78
2022/05/11 10:38:44;;;;;;;9.48;4.20;;;;;;;30.24;30.61;98383.09;5437390;26;20069;-78
2022/05/11 10:41:41;;;;;;;10.00;4.32;;;;;;;30.06;32.60;98388.75;5437074;26;20413;-78
2022/05/11 10:44:17;;;;;;;7.55;4.12;;;;;;;30.02;32.06;98384.78;5417370;26;20043;-78
2022/05/11 10:47:15;;;;;;;9.57;4.90;;;;;;;29.52;33.32;98383.53;5437296;26;20095;-78
2022/05/11 10:49:53;;;;;;;8.05;4.00;;;;;;;28.86;33.74;98384.87;5437249;26;20102;-78
2022/05/11 10:52:47;;;;;;;14.07;4.65;;;;;;;29.37;32.16;98379.97;5436923;26;20102;-78
2022/05/11 10:55:56;;;;;;;7.95;4.30;;;;;;;29.96;30.61;98370.34;5437079;26;20113;-78
2022/05/11 10:58:34;;;;;;;9.02;4.70;;;;;;;30.22;31.45;98366.47;5325464;26;20131;-78
2022/05/11 11:01:11;;;;;;;7.90;4.10;;;;;;;29.88;31.84;98358.94;5430224;26;20106;-78
2022/05/11 11:04:03;;;;;;;8.18;4.37;;;;;;;30.20;31.29;98364.00;5417073;26;20050;-78
2022/05/11 11:07:16;;;;;;;10.93;4.28;;;;;;;30.17;31.61;98361.69;5417231;26;20074;-78
2022/05/11 11:10:18;;;;;;;9.80;4.35;;;;;;;29.74;33.13;98357.91;5413864;26;20082;-78
2022/05/11 11:13:04;;;;;;;7.32;3.70;;;;;;;29.33;31.42;98360.84;5437613;26;20056;-78
2022/05/11 11:15:36;;;;;;;9.45;4.00;;;;;;;29.60;32.51;98354.22;5436928;26;20050;-78
2022/05/11 11:18:04;;;;;;;8.00;4.12;;;;;;;30.45;31.40;98361.06;5412687;26;20122;-78
2022/05/11 11:20:37;;;;;;;7.05;3.92;;;;;;;30.47;31.21;98351.88;5412855;26;20082;-78
2022/05/11 11:23:27;;;;;;;7.87;4.07;;;;;;;29.87;30.27;98346.66;5412530;26;20071;-78
2022/05/11 11:26:03;;;;;;;9.07;4.43;;;;;;;30.03;30.93;98346.50;5414506;26;20122;-79
2022/05/11 11:28:34;;;;;;;8.25;3.97;;;;;;;30.05;30.87;98349.81;5414035;26;20067;-78
2022/05/11 11:31:00;;;;;;;14.15;4.47;;;;;;;29.64;33.18;98346.69;5412767;26;20082;-79
2022/05/11 11:33:35;;;;;;;7.60;4.25;;;;;;;29.85;31.90;98351.34;5414310;26;20099;-79
2022/05/11 11:36:04;;;;;;;7.90;4.10;;;;;;;29.56;32.21;98349.41;5413947;26;20106;-78
2022/05/11 11:38:41;;;;;;;7.90;4.40;;;;;;;29.51;30.49;98349.16;5412564;26;20098;-79
2022/05/11 11:41:32;;;;;;;8.38;4.00;;;;;;;29.61;31.33;98341.75;5414151;26;20063;-78
2022/05/11 11:44:03;;;;;;;8.38;4.30;;;;;;;29.78;31.73;98339.78;5413860;26;20059;-79
2022/05/11 11:46:45;;;;;;;8.02;4.65;;;;;;;30.06;31.67;98342.66;5414432;26;20175;-79
2022/05/11 11:49:33;;;;;;;9.05;4.28;;;;;;;30.02;31.53;98344.03;5413936;26;20051;-79
2022/05/11 11:52:06;;;;;;;8.18;4.12;;;;;;;29.96;29.55;98334.94;5413497;26;20059;-79
2022/05/11 11:54:39;;;;;;;11.68;4.37;;;;;;;30.36;30.05;98335.53;5414260;26;20064;-79
2022/05/11 11:57:16;;;;;;;9.95;4.25;;;;;;;29.92;32.03;98328.34;5413648;26;20061;-78
2022/05/11 11:59:46;;;;;;;8.65;4.10;;;;;;;29.42;32.09;98335.06;5414021;26;20126;-78
2022/05/11 12:02:24;;;;;;;8.07;4.20;;;;;;;28.70;32.41;98335.31;5412708;26;20123;-79
2022/05/11 12:05:11;;;;;;;7.82;4.07;;;;;;;28.32;32.87;98330.84;5413725;26;20087;-78
2022/05/11 12:16:14;;;;;;;10.23;4.20;;;;;;;28.37;34.06;98323.16;5415245;26;20059;-80
2022/05/11 12:18:43;;;;;;;8.55;3.92;;;;;;;29.03;33.63;98319.22;5436234;26;20051;-79
2022/05/11 12:21:32;;;;;;;6.90;3.80;;;;;;;29.19;32.90;98318.28;5437075;26;20057;-79
2022/05/11 12:24:02;;;;;;;9.60;3.78;;;;;;;29.63;31.67;98318.47;5437027;26;20079;-79
2022/05/11 12:26:32;;;;;;;8.95;4.20;;;;;;;30.13;30.66;98303.69;5436715;26;20059;-79
2022/05/11 12:32:06;;;;;;;8.82;4.50;;;;;;;29.62;31.18;98299.03;5419186;26;20059;-79